Pagina principale
METAR-TAF:

METAR-TAF

Aeroporti :

Bologna, Italia

Aeroporto di Bologna-Borgo Panigale

latitudine: 44-32N, longitudine: 011-18E, altezza: 36 m

Osservazione

Il bollettino è stato emesso 27 minuti fa, alle 11:50 UTC
Vento 7 kt da ovest, variando fra ovest/sud-ovest e ovest/nord-ovest
Temperature 11°C
Umidità 71%
Pressione 1013 hPa
Visibilità 10 km o più
nessuna nube inferiore a 1500 m e nessun cumulonembo

METAR: LIPE 191150Z 28007KT 240V300 CAVOK 11/06 Q1013

Ora: 13:17 (12:17 UTC)

Previsione

Il bollettino è stato emesso 1 ora e 17 minuti fa, alle 11:00 UTC
Previsione valida dal 19 alle 12 UTC al 20 alle 12 UTC
Vento 6 kt da direzioni variabili
Visibilità 10 km o più
Nubi sparse ad un'altezza di 4000 ft

TAF: LIPE 191100Z 1912/2012 VRB06KT 9999 SCT040

Osservazioni e previsioni meteorologiche di più di 4000 aeroporti (messaggi METAR e TAF).

Le stazioni disponibili sono rappresentate dai dischi gialli e rossi sulla carta.

Puntare il mouse per vedere il nome della stazione.

Clicca sopra per visualizzare le osservazioni e previsioni meteorologiche.

Per cambiare la mappa : fare clic sui pulsanti verdi con una croce nera per ingrandire, il pulsante verde con un trattino per diminuire, o sulla freccia verde per le mappe adiacenti.


METAR-TAF: